createdAt,value
2018-12-09T00:01:52.299Z,98043.68
2018-12-09T00:04:20.800Z,98032.23
2018-12-09T00:06:49.327Z,98032.06
2018-12-09T00:09:17.795Z,98035.08
2018-12-09T00:11:46.373Z,98030.30
2018-12-09T00:14:14.788Z,97978.28
2018-12-09T00:16:43.214Z,98058.57
2018-12-09T00:19:11.749Z,98023.47
2018-12-09T00:21:40.151Z,98051.80
2018-12-09T00:24:08.570Z,98047.13
2018-12-09T00:26:37.008Z,98064.67
2018-12-09T00:29:05.433Z,98038.38
2018-12-09T00:31:33.899Z,98058.13
2018-12-09T00:34:02.323Z,98069.85
2018-12-09T00:36:30.701Z,98047.27
2018-12-09T00:38:59.183Z,98021.89
2018-12-09T00:41:27.967Z,98054.98
2018-12-09T00:43:56.560Z,98050.12
2018-12-09T00:46:25.228Z,98059.63
2018-12-09T00:48:53.891Z,98057.93
2018-12-09T00:51:24.026Z,98064.97
2018-12-09T00:53:52.679Z,98067.05
2018-12-09T00:56:21.350Z,98049.08
2018-12-09T00:58:49.827Z,98080.31
2018-12-09T01:01:18.295Z,98083.83
2018-12-09T01:03:46.751Z,98052.63
2018-12-09T01:06:15.377Z,98070.50
2018-12-09T01:08:43.851Z,98063.55
2018-12-09T01:11:12.315Z,98076.64
2018-12-09T01:13:40.728Z,98086.70
2018-12-09T01:16:09.127Z,98093.47
2018-12-09T01:18:37.542Z,98095.63
2018-12-09T01:21:05.927Z,98096.79
2018-12-09T01:23:34.324Z,98109.02
2018-12-09T01:26:02.734Z,98120.15
2018-12-09T01:28:31.388Z,98109.32
2018-12-09T01:30:59.812Z,98111.45
2018-12-09T01:33:28.279Z,98113.30
2018-12-09T01:35:56.872Z,98104.78
2018-12-09T01:38:25.515Z,98119.52
2018-12-09T01:40:54.776Z,98092.53
2018-12-09T01:43:23.297Z,98128.66
2018-12-09T01:45:51.849Z,98097.80
2018-12-09T01:48:20.307Z,98123.98
2018-12-09T01:50:48.767Z,98100.08
2018-12-09T01:53:28.267Z,98100.43
2018-12-09T01:55:56.647Z,98093.40
2018-12-09T01:58:25.338Z,98130.44
2018-12-09T02:00:53.721Z,98112.22
2018-12-09T02:03:22.124Z,98141.69
2018-12-09T02:05:50.593Z,98115.12
2018-12-09T02:08:19.079Z,98108.36
2018-12-09T02:10:47.528Z,98119.11
2018-12-09T02:13:15.936Z,98127.30
2018-12-09T02:15:44.404Z,98111.11
2018-12-09T02:18:12.840Z,98092.39
2018-12-09T02:20:41.274Z,98105.38
2018-12-09T02:23:09.672Z,98115.16
2018-12-09T02:25:38.076Z,98112.56
2018-12-09T02:28:06.446Z,98111.83
2018-12-09T02:30:35.088Z,98118.83
2018-12-09T02:33:03.567Z,98139.28
2018-12-09T02:35:36.514Z,98124.47
2018-12-09T02:38:05.058Z,98116.48
2018-12-09T02:40:33.526Z,98113.23
2018-12-09T02:43:01.946Z,98123.78
2018-12-09T02:45:30.767Z,98129.94
2018-12-09T02:47:59.221Z,98123.37
2018-12-09T02:50:27.649Z,98137.67
2018-12-09T02:52:56.196Z,98122.08
2018-12-09T02:55:24.606Z,98132.44
2018-12-09T02:57:52.996Z,98120.54
2018-12-09T03:00:21.482Z,98110.48
2018-12-09T03:02:49.979Z,98104.91
2018-12-09T03:05:18.555Z,98075.42
2018-12-09T03:07:47.031Z,98127.98
2018-12-09T03:10:15.440Z,98127.30
2018-12-09T03:12:50.748Z,98128.30
2018-12-09T03:15:19.262Z,98136.69
2018-12-09T03:17:48.204Z,98144.53
2018-12-09T03:20:16.780Z,98114.30
2018-12-09T03:22:45.163Z,98134.39
2018-12-09T03:25:13.769Z,98121.06
2018-12-09T03:27:42.169Z,98150.19
2018-12-09T03:30:10.717Z,98132.17
2018-12-09T03:32:39.114Z,98136.12
2018-12-09T03:35:08.144Z,98135.34
2018-12-09T03:37:36.520Z,98125.01
2018-12-09T03:40:05.525Z,98104.80
2018-12-09T03:42:34.024Z,98121.05
2018-12-09T03:45:02.481Z,98137.14
2018-12-09T03:47:30.915Z,98122.48
2018-12-09T03:50:00.439Z,98116.62
2018-12-09T03:52:29.074Z,98131.28
2018-12-09T03:54:57.637Z,98107.39
2018-12-09T03:57:26.223Z,98134.91
2018-12-09T03:59:54.795Z,98139.36
2018-12-09T04:02:23.401Z,98124.70
2018-12-09T04:04:52.396Z,98129.43
2018-12-09T04:07:21.064Z,98114.12
2018-12-09T04:09:49.703Z,98120.67
2018-12-09T04:12:18.301Z,98122.03
2018-12-09T04:14:47.095Z,98137.20
2018-12-09T04:17:15.683Z,98128.42
2018-12-09T04:19:44.175Z,98126.93
2018-12-09T04:22:12.703Z,98111.37
2018-12-09T04:24:41.173Z,98089.44
2018-12-09T04:27:09.773Z,98131.83
2018-12-09T04:29:38.245Z,98154.02
2018-12-09T04:32:06.808Z,98147.31
2018-12-09T04:34:35.220Z,98154.45
2018-12-09T04:37:03.703Z,98152.16
2018-12-09T04:39:32.544Z,98168.38
2018-12-09T04:42:01.160Z,98180.55
2018-12-09T04:44:29.918Z,98182.41
2018-12-09T04:46:58.693Z,98146.50
2018-12-09T04:49:27.635Z,98167.60
2018-12-09T04:51:58.576Z,98166.41
2018-12-09T04:54:28.579Z,98172.84
2018-12-09T04:56:57.056Z,98153.66
2018-12-09T04:59:26.412Z,98173.41
2018-12-09T05:01:55.018Z,98187.25
2018-12-09T05:04:23.441Z,98188.36
2018-12-09T05:06:51.902Z,98181.30
2018-12-09T05:09:20.355Z,98175.65
2018-12-09T05:11:49.172Z,98161.84
2018-12-09T05:14:17.570Z,98180.69
2018-12-09T05:16:45.975Z,98192.59
2018-12-09T05:19:14.421Z,98195.80
2018-12-09T05:21:43.088Z,98182.04
2018-12-09T05:24:18.171Z,98206.42
2018-12-09T05:26:46.550Z,98176.52
2018-12-09T05:29:14.947Z,98189.31
2018-12-09T05:31:43.464Z,98199.80
2018-12-09T05:34:12.896Z,98211.73
2018-12-09T05:36:41.368Z,98158.89
2018-12-09T05:39:09.999Z,98228.44
2018-12-09T05:41:38.448Z,98215.31
2018-12-09T05:44:07.004Z,98210.43
2018-12-09T05:46:35.905Z,98219.32
2018-12-09T05:49:04.304Z,98196.73
2018-12-09T05:51:32.738Z,98211.36
2018-12-09T05:54:01.132Z,98214.33
2018-12-09T05:56:29.539Z,98206.67
2018-12-09T05:58:57.983Z,98226.68
2018-12-09T06:01:26.454Z,98231.84
2018-12-09T06:03:54.839Z,98210.73
2018-12-09T06:06:23.371Z,98245.77
2018-12-09T06:08:51.731Z,98236.38
2018-12-09T06:11:20.154Z,98248.55
2018-12-09T06:13:48.563Z,98253.39
2018-12-09T06:16:16.982Z,98235.31
2018-12-09T06:18:45.419Z,98242.64
2018-12-09T06:21:13.824Z,98253.61
2018-12-09T06:23:42.236Z,98241.08
2018-12-09T06:26:10.702Z,98276.58
2018-12-09T06:28:39.167Z,98270.66
2018-12-09T06:31:07.564Z,98287.09
2018-12-09T06:33:36.356Z,98285.02
2018-12-09T06:36:04.731Z,98286.09
2018-12-09T06:38:33.172Z,98287.42
2018-12-09T06:41:01.628Z,98299.30
2018-12-09T06:43:30.088Z,98292.80
2018-12-09T06:45:58.789Z,98279.84
2018-12-09T06:48:27.197Z,98286.88
2018-12-09T06:50:55.592Z,98301.79
2018-12-09T06:53:23.980Z,98287.18
2018-12-09T06:55:52.361Z,98308.28
2018-12-09T06:58:21.167Z,98296.70
2018-12-09T07:00:49.513Z,98325.64
2018-12-09T07:03:17.964Z,98323.78
2018-12-09T07:05:46.355Z,98312.72
2018-12-09T07:08:14.755Z,98318.91
2018-12-09T07:10:43.439Z,98322.13
2018-12-09T07:13:11.900Z,98345.41
2018-12-09T07:15:40.484Z,98309.66
2018-12-09T07:18:09.029Z,98325.83
2018-12-09T07:20:37.906Z,98352.31
2018-12-09T07:23:06.803Z,98342.90
2018-12-09T07:25:35.303Z,98346.17
2018-12-09T07:28:03.875Z,98358.31
2018-12-09T07:30:32.475Z,98360.50
2018-12-09T07:33:00.966Z,98365.56
2018-12-09T07:35:29.577Z,98358.56
2018-12-09T07:37:57.959Z,98360.16
2018-12-09T07:40:26.406Z,98364.73
2018-12-09T07:42:54.899Z,98383.15
2018-12-09T07:45:23.318Z,98375.06
2018-12-09T07:47:56.688Z,98387.48
2018-12-09T07:50:25.220Z,98393.41
2018-12-09T07:52:53.608Z,98363.11
2018-12-09T07:55:22.066Z,98402.31
2018-12-09T07:57:50.463Z,98386.32
2018-12-09T08:00:18.948Z,98406.39
2018-12-09T08:02:47.323Z,98404.22
2018-12-09T08:05:15.733Z,98404.25
2018-12-09T08:07:44.092Z,98379.93
2018-12-09T08:10:12.477Z,98401.25
2018-12-09T08:12:40.843Z,98404.84
2018-12-09T08:15:09.417Z,98412.39
2018-12-09T08:17:37.771Z,98412.69
2018-12-09T08:20:06.679Z,98418.09
2018-12-09T08:22:35.280Z,98428.91
2018-12-09T08:25:03.972Z,98421.64
2018-12-09T08:27:32.556Z,98414.28
2018-12-09T08:30:01.120Z,98421.53
2018-12-09T08:32:29.595Z,98434.47
2018-12-09T08:34:59.205Z,98446.37
2018-12-09T08:37:27.773Z,98433.14
2018-12-09T08:40:00.673Z,98431.72
2018-12-09T08:42:29.249Z,98435.80
2018-12-09T08:44:57.789Z,98447.14
2018-12-09T08:47:26.397Z,98439.02
2018-12-09T08:49:54.984Z,98432.26
2018-12-09T08:52:23.515Z,98448.50
2018-12-09T08:54:51.900Z,98438.48
2018-12-09T08:57:20.312Z,98464.97
2018-12-09T08:59:48.702Z,98459.05
2018-12-09T09:02:17.056Z,98469.89
2018-12-09T09:04:45.543Z,98469.63
2018-12-09T09:07:13.940Z,98474.22
2018-12-09T09:09:42.309Z,98474.22
2018-12-09T09:12:10.973Z,98465.05
2018-12-09T09:14:39.592Z,98462.91
2018-12-09T09:17:08.073Z,98476.20
2018-12-09T09:19:36.731Z,98471.58
2018-12-09T09:22:05.440Z,98467.59
2018-12-09T09:24:33.996Z,98481.72
2018-12-09T09:27:02.579Z,98483.92
2018-12-09T09:29:31.180Z,98489.14
2018-12-09T09:31:59.815Z,98470.48
2018-12-09T09:34:28.284Z,98472.88
2018-12-09T09:36:56.919Z,98472.64
2018-12-09T09:39:25.541Z,98461.98
2018-12-09T09:41:54.068Z,98455.38
2018-12-09T09:44:22.491Z,98467.31
2018-12-09T09:46:50.951Z,98461.66
2018-12-09T09:49:19.341Z,98463.28
2018-12-09T09:51:47.890Z,98469.94
2018-12-09T09:54:16.342Z,98466.91
2018-12-09T09:56:45.364Z,98460.33
2018-12-09T10:02:08.797Z,98463.99
2018-12-09T10:04:37.209Z,98461.02
2018-12-09T10:07:05.641Z,98468.82
2018-12-09T10:09:34.088Z,98471.44
2018-12-09T10:12:02.500Z,98481.41
2018-12-09T10:14:30.879Z,98481.66
2018-12-09T10:16:59.276Z,98467.84
2018-12-09T10:19:27.834Z,98481.38
2018-12-09T10:21:56.402Z,98490.70
2018-12-09T10:24:25.009Z,98496.54
2018-12-09T10:26:53.528Z,98479.05
2018-12-09T10:29:22.008Z,98486.97
2018-12-09T10:31:50.568Z,98480.94
2018-12-09T10:34:19.009Z,98488.62
2018-12-09T10:36:47.428Z,98493.30
2018-12-09T10:39:15.795Z,98486.11
2018-12-09T10:41:44.239Z,98498.03
2018-12-09T10:44:12.616Z,98490.80
2018-12-09T10:46:41.075Z,98499.19
2018-12-09T10:49:09.512Z,98517.55
2018-12-09T10:51:37.952Z,98521.04
2018-12-09T10:54:06.356Z,98526.41
2018-12-09T10:56:34.740Z,98522.39
2018-12-09T10:59:03.138Z,98534.50
2018-12-09T11:01:36.898Z,98533.16
2018-12-09T11:04:05.535Z,98530.16
2018-12-09T11:06:34.112Z,98526.64
2018-12-09T11:09:03.148Z,98531.75
2018-12-09T11:11:31.862Z,98525.55
2018-12-09T11:14:00.354Z,98536.30
2018-12-09T11:16:28.851Z,98524.17
2018-12-09T11:18:57.632Z,98545.48
2018-12-09T11:21:30.558Z,98555.45
2018-12-09T11:23:56.727Z,98558.92
2018-12-09T11:26:25.161Z,98569.41
2018-12-09T11:28:53.576Z,98569.14
2018-12-09T11:31:22.348Z,98572.41
2018-12-09T11:33:50.905Z,98575.89
2018-12-09T11:36:19.264Z,98572.66
2018-12-09T11:38:47.680Z,98554.88
2018-12-09T11:41:16.129Z,98570.73
2018-12-09T11:43:45.023Z,98576.14
2018-12-09T11:46:13.956Z,98577.48
2018-12-09T11:48:42.567Z,98564.83
2018-12-09T11:51:11.418Z,98588.80
2018-12-09T11:53:40.101Z,98587.70
2018-12-09T11:56:08.836Z,98592.31
2018-12-09T12:10:49.777Z,98609.34
2018-12-09T12:19:24.130Z,98615.59
2018-12-09T12:46:24.397Z,98591.61
2018-12-09T12:49:03.553Z,98594.30
2018-12-09T12:51:32.209Z,98593.77
2018-12-09T12:54:00.644Z,98601.86
2018-12-09T12:56:36.958Z,98596.70
2018-12-09T12:59:12.378Z,98603.98
2018-12-09T13:01:45.705Z,98611.52
2018-12-09T13:04:22.655Z,98621.49
2018-12-09T13:06:58.557Z,98630.11
2018-12-09T13:09:27.015Z,98636.58
2018-12-09T13:23:45.267Z,98662.16
2018-12-09T13:32:19.946Z,98694.11
2018-12-09T13:53:03.900Z,98788.58
2018-12-09T13:55:32.467Z,98797.20
2018-12-09T13:58:00.898Z,98777.80
2018-12-09T14:00:34.019Z,98805.02
2018-12-09T14:03:02.439Z,98814.45
2018-12-09T14:05:30.858Z,98826.34
2018-12-09T14:07:59.396Z,98828.47
2018-12-09T14:10:27.793Z,98834.45
2018-12-09T14:12:56.207Z,98835.52
2018-12-09T14:15:24.818Z,98853.87
2018-12-09T14:17:53.279Z,98858.16
2018-12-09T14:20:21.703Z,98862.50
2018-12-09T14:22:50.179Z,98871.95
2018-12-09T14:25:18.669Z,98873.30
2018-12-09T14:27:47.062Z,98871.73
2018-12-09T14:30:34.698Z,98875.52
2018-12-09T14:33:03.340Z,98871.73
2018-12-09T14:35:31.751Z,98882.26
2018-12-09T14:38:00.251Z,98891.99
2018-12-09T14:40:29.040Z,98897.94
2018-12-09T14:42:57.912Z,98904.16
2018-12-09T14:45:26.633Z,98918.44
2018-12-09T14:47:55.226Z,98920.61
2018-12-09T14:50:23.747Z,98924.13
2018-12-09T14:52:52.257Z,98934.38
2018-12-09T14:55:21.023Z,98944.65
2018-12-09T14:57:49.550Z,98951.11
2018-12-09T15:00:18.434Z,98965.98
2018-12-09T15:02:47.052Z,98963.81
2018-12-09T15:05:15.517Z,98976.22
2018-12-09T15:07:44.923Z,98982.97
2018-12-09T15:10:13.748Z,98983.24
2018-12-09T15:12:42.316Z,98994.81
2018-12-09T15:15:10.834Z,98994.01
2018-12-09T15:17:39.246Z,99005.05
2018-12-09T15:20:07.864Z,99006.39
2018-12-09T15:22:36.260Z,98998.58
2018-12-09T15:25:05.944Z,98985.37
2018-12-09T15:27:34.402Z,99005.87
2018-12-09T15:30:03.234Z,99005.35
2018-12-09T15:32:31.849Z,99015.33
2018-12-09T15:35:00.623Z,99013.45
2018-12-09T15:37:29.214Z,99025.06
2018-12-09T15:39:57.808Z,99021.78
2018-12-09T15:42:26.467Z,99032.82
2018-12-09T15:44:55.128Z,99030.98
2018-12-09T15:47:31.154Z,99042.86
2018-12-09T15:49:59.785Z,99044.77
2018-12-09T15:52:28.389Z,99045.85
2018-12-09T15:54:57.016Z,99060.38
2018-12-09T15:57:25.736Z,99063.66
2018-12-09T15:59:54.254Z,99069.84
2018-12-09T16:02:22.965Z,99070.41
2018-12-09T16:04:51.446Z,99078.52
2018-12-09T16:07:23.144Z,99088.80
2018-12-09T16:09:51.764Z,99087.44
2018-12-09T16:12:20.548Z,99087.16
2018-12-09T16:14:49.235Z,99085.22
2018-12-09T16:17:17.844Z,99098.96
2018-12-09T16:19:51.442Z,99099.73
2018-12-09T16:22:20.584Z,99105.16
2018-12-09T16:24:49.180Z,99113.77
2018-12-09T16:27:18.012Z,99121.84
2018-12-09T16:29:46.671Z,99130.47
2018-12-09T16:32:15.398Z,99130.67
2018-12-09T16:34:44.571Z,99134.44
2018-12-09T16:37:13.132Z,99139.81
2018-12-09T16:39:41.557Z,99148.94
2018-12-09T16:42:10.040Z,99156.43
2018-12-09T16:44:38.548Z,99165.84
2018-12-09T16:47:07.039Z,99172.38
2018-12-09T16:49:35.471Z,99170.47
2018-12-09T16:52:03.928Z,99179.30
2018-12-09T16:54:32.363Z,99181.91
2018-12-09T16:57:00.768Z,99204.25
2018-12-09T16:59:29.187Z,99215.59
2018-12-09T17:01:57.593Z,99217.97
2018-12-09T17:04:26.001Z,99229.05
2018-12-09T17:06:54.413Z,99229.08
2018-12-09T17:09:22.919Z,99226.44
2018-12-09T17:11:51.314Z,99236.17
2018-12-09T17:14:19.842Z,99249.10
2018-12-09T17:16:48.408Z,99258.28
2018-12-09T17:19:17.052Z,99277.62
2018-12-09T17:21:45.631Z,99266.23
2018-12-09T17:24:14.224Z,99267.03
2018-12-09T17:26:43.204Z,99280.21
2018-12-09T17:29:11.812Z,99293.47
2018-12-09T17:31:42.309Z,99289.91
2018-12-09T17:34:10.833Z,99305.53
2018-12-09T17:36:39.366Z,99298.23
2018-12-09T17:39:08.173Z,99310.66
2018-12-09T17:41:37.004Z,99321.67
2018-12-09T17:44:05.563Z,99319.73
2018-12-09T17:46:34.098Z,99338.59
2018-12-09T17:49:02.531Z,99341.37
2018-12-09T17:51:31.252Z,99348.74
2018-12-09T17:53:59.735Z,99353.12
2018-12-09T17:56:28.107Z,99368.59
2018-12-09T17:58:56.508Z,99382.03
2018-12-09T18:01:24.919Z,99386.56
2018-12-09T18:03:53.440Z,99383.58
2018-12-09T18:06:22.054Z,99391.84
2018-12-09T18:08:50.716Z,99410.64
2018-12-09T18:11:19.169Z,99404.64
2018-12-09T18:13:47.646Z,99416.55
2018-12-09T18:16:16.271Z,99416.25
2018-12-09T18:18:44.867Z,99425.42
2018-12-09T18:21:13.348Z,99434.08
2018-12-09T18:23:41.953Z,99445.17
2018-12-09T18:26:10.408Z,99451.17
2018-12-09T18:28:39.160Z,99446.11
2018-12-09T18:31:07.646Z,99436.98
2018-12-09T18:33:36.679Z,99456.46
2018-12-09T18:36:05.298Z,99466.20
2018-12-09T18:38:33.829Z,99478.03
2018-12-09T18:41:02.310Z,99480.73
2018-12-09T18:43:30.711Z,99483.13
2018-12-09T18:45:59.224Z,99499.26
2018-12-09T18:48:27.640Z,99507.75
2018-12-09T18:50:56.040Z,99539.70
2018-12-09T18:53:24.424Z,99554.44
2018-12-09T18:55:52.940Z,99538.77
2018-12-09T18:58:21.415Z,99587.52
2018-12-09T19:00:50.909Z,99584.19
2018-12-09T19:03:19.381Z,99566.42
2018-12-09T19:05:47.940Z,99582.84
2018-12-09T19:08:16.406Z,99593.66
2018-12-09T19:10:45.065Z,99601.20
2018-12-09T19:13:13.580Z,99606.15
2018-12-09T19:15:42.065Z,99616.59
2018-12-09T19:18:12.772Z,99608.78
2018-12-09T19:20:44.042Z,99619.20
2018-12-09T19:23:13.334Z,99613.54
2018-12-09T19:25:42.928Z,99624.22
2018-12-09T19:28:13.471Z,99632.63
2018-12-09T19:30:48.240Z,99625.42
2018-12-09T19:33:16.476Z,99641.34
2018-12-09T19:35:50.273Z,99644.09
2018-12-09T19:38:19.899Z,99645.73
2018-12-09T19:40:53.171Z,99644.34
2018-12-09T19:43:22.836Z,99648.33
2018-12-09T19:45:54.450Z,99665.02
2018-12-09T19:48:23.975Z,99668.59
2018-12-09T19:50:54.875Z,99668.39
2018-12-09T19:53:28.864Z,99675.23
2018-12-09T19:55:58.607Z,99678.78
2018-12-09T19:58:28.731Z,99666.37
2018-12-09T20:00:57.628Z,99666.58
2018-12-09T20:03:26.551Z,99694.04
2018-12-09T20:05:56.373Z,99680.81
2018-12-09T20:08:26.909Z,99695.28
2018-12-09T20:10:56.008Z,99683.59
2018-12-09T20:13:27.298Z,99700.42
2018-12-09T20:15:57.037Z,99697.80
2018-12-09T20:18:26.993Z,99707.58
2018-12-09T20:20:56.765Z,99717.19
2018-12-09T20:23:26.176Z,99719.61
2018-12-09T20:25:57.885Z,99724.63
2018-12-09T20:28:27.493Z,99731.30
2018-12-09T20:30:57.376Z,99740.20
2018-12-09T20:33:26.945Z,99737.23
2018-12-09T20:35:56.413Z,99738.91
2018-12-09T20:38:27.165Z,99741.73
2018-12-09T20:40:56.820Z,99747.20
2018-12-09T20:43:27.589Z,99755.13
2018-12-09T20:45:57.473Z,99744.44
2018-12-09T20:48:29.089Z,99757.75
2018-12-09T20:51:05.241Z,99758.91
2018-12-09T20:53:34.626Z,99773.20
2018-12-09T20:56:04.114Z,99757.56
2018-12-09T20:58:33.556Z,99772.66
2018-12-09T21:01:09.375Z,99769.69
2018-12-09T21:03:39.765Z,99781.50
2018-12-09T21:06:10.052Z,99780.92
2018-12-09T21:08:41.141Z,99789.83
2018-12-09T21:11:10.054Z,99787.66
2018-12-09T21:13:38.795Z,99790.35
2018-12-09T21:16:08.224Z,99793.88
2018-12-09T21:18:38.309Z,99799.84
2018-12-09T21:21:08.388Z,99807.68
2018-12-09T21:23:38.524Z,99808.45
2018-12-09T21:26:08.196Z,99807.73
2018-12-09T21:28:37.056Z,99815.73
2018-12-09T21:31:07.903Z,99812.97
2018-12-09T21:33:38.179Z,99796.17
2018-12-09T21:36:07.896Z,99812.72
2018-12-09T21:38:37.793Z,99826.73
2018-12-09T21:41:06.901Z,99819.82
2018-12-09T21:43:36.271Z,99845.16
2018-12-09T21:46:05.135Z,99838.49
2018-12-09T21:48:35.311Z,99852.48
2018-12-09T21:51:04.051Z,99865.36
2018-12-09T21:53:35.313Z,99872.16
2018-12-09T21:56:05.281Z,99856.24
2018-12-09T21:58:35.214Z,99866.13
2018-12-09T22:01:06.829Z,99867.16
2018-12-09T22:03:36.271Z,99883.87
2018-12-09T22:06:04.955Z,99882.28
2018-12-09T22:08:43.347Z,99894.67
2018-12-09T22:11:13.018Z,99882.03
2018-12-09T22:13:41.777Z,99888.01
2018-12-09T22:16:11.239Z,99896.09
2018-12-09T22:18:40.268Z,99898.02
2018-12-09T22:21:10.100Z,99900.26
2018-12-09T22:23:42.671Z,99900.19
2018-12-09T22:26:12.356Z,99911.03
2018-12-09T22:28:41.446Z,99919.11
2018-12-09T22:31:11.556Z,99919.70
2018-12-09T22:33:41.090Z,99924.56
2018-12-09T22:36:10.425Z,99933.47
2018-12-09T22:38:39.705Z,99931.61
2018-12-09T22:41:09.305Z,99928.36
2018-12-09T22:43:42.407Z,99936.45
2018-12-09T22:46:12.312Z,99944.80
2018-12-09T22:48:45.271Z,99945.22
2018-12-09T22:51:14.521Z,99947.77
2018-12-09T22:53:44.384Z,99958.81
2018-12-09T22:56:14.035Z,99964.80
2018-12-09T22:58:43.461Z,99981.78
2018-12-09T23:01:20.869Z,99981.61
2018-12-09T23:03:50.572Z,99983.55
2018-12-09T23:06:20.293Z,99993.28
2018-12-09T23:08:49.484Z,99980.33
2018-12-09T23:11:19.519Z,99988.72
2018-12-09T23:13:49.322Z,99984.68
2018-12-09T23:16:20.323Z,99981.68
2018-12-09T23:18:52.532Z,99986.55
2018-12-09T23:21:22.477Z,99988.13
2018-12-09T23:23:51.473Z,99985.72
2018-12-09T23:26:21.055Z,99999.64
2018-12-09T23:28:50.437Z,100002.75
2018-12-09T23:31:19.701Z,99998.70
2018-12-09T23:33:51.818Z,100007.61
2018-12-09T23:36:21.241Z,100012.45
2018-12-09T23:38:51.155Z,100018.91
2018-12-09T23:41:20.829Z,100018.59
2018-12-09T23:43:50.636Z,100016.22
2018-12-09T23:46:20.149Z,100025.92
2018-12-09T23:48:49.732Z,100043.43
2018-12-09T23:51:19.679Z,100035.07
2018-12-09T23:53:49.284Z,100030.30
2018-12-09T23:56:19.985Z,100044.52
2018-12-09T23:58:49.866Z,100048.17
